Patrick AFB, Florida
Current Conditions -  °F | °C
As of 4:58 PM on Saturday 25 Oct 2014 (Local Time) from KCOF Reporting Station
Clear Clear  
Wind Chill: 77°   Ceiling: Unl
Heat Index: 79°   Visibility: 10mi
Dew Point: 62°   Wind: 16mph
Humidity: 59%   Direction: 10°N
Pressure: 29.93"   Gusts: 18mph
Location:  28.22°N, 80.61°W
Report Text: KCOF 252058Z AUTO 01014G16KT 10SM CLR 25/17 A2993 RMK AO2 SLP140 T02500165 55004
Loading
Personal Weather Stations






























Interactive Weather Map
Tropical Storm Tracking
New forecast layout! Learn more

10-Day Weather Forecast

Advertisements
Track Severe Weather on mobile